CYEG/YEG METAR and TAF weather

Enter ICAO airport designator
Station Type Date Time Source
CYEG METAR 2022/08/16 18:00 UTC NOAA

CYEG 161800Z 20006KT 20SM FEW100 FEW170 BKN250 26/14 A2999 RMK ACC1AC2CI4 ACC TR CONTRAILS CC ASOTCD SLP156 DENSITY ALT 4200FT


Station Type Date Time Source
CYEG Decoded METAR 2022/08/16 18:00 UTC NOAA

Edmonton International, Alta., Canada (CYEG) 53-18N 113-35W 723M
Aug 16, 2022 - 02:00 PM EDT / 2022.08.16 1800 UTC
Wind: from the SSW (200 degrees) at 7 MPH (6 KT):0
Visibility: 20 mile(s):0
Sky conditions: mostly cloudy
Temperature: 78 F (26 C)
Dew Point: 57 F (14 C)
Relative Humidity: 47%
Pressure (altimeter): 29.99 in. Hg (1015 hPa)
ob: CYEG 161800Z 20006KT 20SM FEW100 FEW170 BKN250 26/14 A2999 RMK ACC1AC2CI4 ACC TR CONTRAILS CC ASOTCD SLP156 DENSITY ALT 4200FT
cycle: 18

Station Type Date Time Source
CYEG TAF 2022/08/16 18:42 UTC NOAA

TAF CYEG 161740Z 1618/1718 16008KT P6SM FEW180 BKN250
FM161900 31008KT P6SM BKN120 BKN220
FM170100 32012KT P6SM BKN100
TEMPO 1701/1704 VRB15G25KT P6SM VCTS BKN100CB
FM170400 31008KT P6SM SCT080
RMK NXT FCST BY 162100Z

Example: see airport list